Decoded Metar for GCRR (LANZAROTE in SPAIN) (IATA:ACE) | Meteo·Mobile Aviation Weather
aviador You're here:

GCRR Decoded Metar

LANZAROTE in SPAIN
Report Time2019-09-17 00:00:00
UTC Time2019-09-17 00:23:40
Flight Rules vfr VFR
Wind050° at 05 kt
W.Decomp.*RWY 03: 4.5 kt HW 2.1 kt RCW
Visibility8000 m
Phenomena:N/A
Clouds:Few 020 Hf
Expected CloudBase > 1,200 ft AGL from Temp-Dew spread
CeilingNone
Temp23°C (ISA +8)
Dew Point20°C (83% RH)
QNH1016 hPa
Density Alt1,299 ft
Elevation131 ft
Report Wrong Elevation
Raw Report
GCRR 170000Z 05005KT 8000 FEW020 23/20 Q1016=

Extra information for GCRR:More info

Metar Taf Metar & Taf Last 4 Metars F.Rules Stats Wind Profile Meteogram Temp Stats Airport Information Weather charts Add Link Nearby VenuesMetar ALERT Operation Metar Decoded Social comments